Kezdőlap
METAR-TAF:

METAR-TAF

Repülőterek :

Lyndonville, Vermont, Amerikai Egyesült Államok

földrajzi szélesség: 44-34-09N, földrajzi hosszúság: 072-01-05W, magasság: 362 m

Jelenlegi meteorológiai megfigyelések

A jelentés 22 perccel ezelõtt készült, 14:55 UTC
Nyugati szél 7 kt
Hőmérséklet 6°C
Páratartalom 39%
Légköri nyomás 1017 hPa
Látótávolság: 16.1 km
Derült ég

METAR: KCDA 061455Z AUTO 28007KT 10SM CLR 06/M07 A3002 RMK AO2 T00631073

Idő: 11:17 (15:17 UTC)


TAF: hiányzik

Meteorológiai megfigyelések és előrejelzések több, mint 4000 repülőtéren (METAR és TAF jelentéseket).

A térképen piros és sárga pontok jelzik az elérhető meteorológiai állomásokat.

Mozgassa az egeret a pont fölött, hogy megjelenjen az állomás neve.

Azután kattintson az időjárási megfigyelések és előrejelzések megtekintéséhez.

A térkép megváltoztatása: kattintson a fekete keresztel jelölt zöld gombra ráközelítéshez, a vonallal jelölt zöld gombra távolításhoz, vagy a zöld nyilakra a szomszédos térképek eléréséhez.


METAR-TAF: